Dades meteomassalio
Diari Summary for Gener 15, 2018 Units:  English    Metric   Both
« Previous Day
Next Day »
Diari Semanal Mensual Anual Personalitzat
  Maxima: Minima: Mijana:
Temperatura: TemperatureC °F 0.0 °F 4.4 °F
Rosada: DewpointC °F -2.7 °F 0.7 °F
Humitat: Humidity % 61 % 77 %
Velocitat del vent: WindSpeedKMH mph 0.0 mph 7.4 mph
Racha vent: WindSpeedGustKMH mph - -
Vent:- - WNW
Pressio: PressurehPa in 1024.9 in -
Pluja: 0.0 in    
Historical Graphs
 
 
Tabular Data for Gener 15, 2018
Time Temperature Dew Point Pressure Wind Wind Speed Wind Gust Humidity Rainfall Rate (Hourly) solar Conditions
TemperatureC °F DewpointC °F PressurehPa in Calm     Humidity % HourlyPrecipMM in SolarRadiationWatts/m^2 W/m2 Conditions
00:06 1.7 °F -1.1 °F 1025.3 in WNW 7.4 mph 7.4 mph 82 % 0.0 in 0.0 W/m2 CLR
00:12 1.1 °F -1.6 °F 1025.3 in WNW 9.3 mph 9.3 mph 82 % 0.0 in 0.0 W/m2 CLR
00:23 1.7 °F -0.9 °F 1025.3 in WNW 13.0 mph 13.0 mph 83 % 0.0 in 0.0 W/m2 CLR
00:28 2.2 °F -0.6 °F 1025.3 in WNW 5.6 mph 5.6 mph 82 % 0.0 in 0.0 W/m2 CLR
00:37 1.7 °F -1.1 °F 1025.3 in Calm     82 % 0.0 in 0.0 W/m2 CLR
00:48 1.7 °F -1.2 °F 1025.3 in WNW 1.9 mph 1.9 mph 81 % 0.0 in 0.0 W/m2 CLR
00:54 1.7 °F -1.2 °F 1025.3 in Calm     81 % 0.0 in 0.0 W/m2 CLR
01:01 1.1 °F -1.6 °F 1025.3 in WNW 6.4 mph 6.4 mph 82 % 0.0 in 0.0 W/m2 CLR
01:07 1.1 °F -1.4 °F 1025.3 in West 9.7 mph 9.7 mph 83 % 0.0 in 0.0 W/m2 CLR
01:17 1.1 °F -1.4 °F 1025.3 in West 3.2 mph 3.2 mph 83 % 0.0 in 0.0 W/m2 CLR
01:29 1.1 °F -1.6 °F 1025.3 in Calm     82 % 0.0 in 0.0 W/m2 CLR
01:36 0.6 °F -2.0 °F 1025.3 in WNW 8.0 mph 8.0 mph 83 % 0.0 in 0.0 W/m2 CLR
01:43 1.1 °F -1.3 °F 1025.3 in WNW 9.3 mph 9.3 mph 84 % 0.0 in 0.0 W/m2 CLR
01:49 1.1 °F -1.4 °F 1025.3 in Calm     83 % 0.0 in 0.0 W/m2 CLR
01:57 1.1 °F -1.4 °F 1025.3 in Calm     83 % 0.0 in 0.0 W/m2 CLR
02:04 1.7 °F -0.9 °F 1025.3 in WNW 18.5 mph 18.5 mph 83 % 0.0 in 0.0 W/m2 CLR
02:24 2.2 °F -0.7 °F 1025.3 in NW 5.6 mph 5.6 mph 81 % 0.0 in 0.0 W/m2 CLR
02:30 2.2 °F -0.7 °F 1024.9 in Calm     81 % 0.0 in 0.0 W/m2 CLR
02:37 2.8 °F -0.2 °F 1025.3 in West 5.6 mph 5.6 mph 81 % 0.0 in 0.0 W/m2 CLR
02:44 2.2 °F -0.6 °F 1025.3 in WNW 5.6 mph 5.6 mph 82 % 0.0 in 0.0 W/m2 CLR
02:51 2.2 °F -0.6 °F 1025.3 in NW 14.8 mph 14.8 mph 82 % 0.0 in 0.0 W/m2 CLR
02:59 2.2 °F -0.9 °F 1025.3 in NW 13.0 mph 13.0 mph 80 % 0.0 in 0.0 W/m2 CLR
03:06 1.7 °F -1.4 °F 1025.3 in NW 14.8 mph 14.8 mph 80 % 0.0 in 0.0 W/m2 CLR
03:32 2.8 °F -0.2 °F 1025.6 in West 11.1 mph 11.1 mph 81 % 0.0 in 0.0 W/m2 CLR
03:42 2.8 °F -0.2 °F 1025.6 in West 5.6 mph 5.6 mph 81 % 0.0 in 0.0 W/m2 CLR
04:02 2.8 °F -0.5 °F 1025.6 in NW 13.0 mph 13.0 mph 79 % 0.0 in 0.0 W/m2 CLR
04:13 3.3 °F -0.2 °F 1025.6 in WNW 18.5 mph 18.5 mph 78 % 0.0 in 0.0 W/m2 CLR
04:25 3.9 °F 0.4 °F 1025.6 in WNW 16.7 mph 16.7 mph 78 % 0.0 in 0.0 W/m2 CLR
04:43 3.3 °F 0.1 °F 1025.6 in West 14.8 mph 14.8 mph 79 % 0.0 in 0.0 W/m2 CLR
04:56 2.8 °F -0.3 °F 1026.0 in WNW 1.9 mph 1.9 mph 80 % 0.0 in 0.0 W/m2 CLR
05:03 2.2 °F -0.7 °F 1026.0 in WSW 5.6 mph 5.6 mph 81 % 0.0 in 0.0 W/m2 CLR
05:08 2.2 °F -0.7 °F 1026.0 in WSW 3.7 mph 3.7 mph 81 % 0.0 in 0.0 W/m2 CLR
05:18 2.2 °F -0.6 °F 1026.0 in WNW 11.1 mph 11.1 mph 82 % 0.0 in 0.0 W/m2 CLR
05:31 1.7 °F -0.9 °F 1026.0 in West 4.8 mph 4.8 mph 83 % 0.0 in 0.0 W/m2 CLR
05:56 1.7 °F -1.1 °F 1026.3 in NW 5.6 mph   82 % 0.0 in 0.0 W/m2 CLR
06:05 1.7 °F -1.1 °F 1026.3 in Calm     82 % 0.0 in 0.0 W/m2 CLR
06:11 1.1 °F -1.6 °F 1026.3 in Calm     82 % 0.0 in 0.0 W/m2 CLR
06:19 1.1 °F -1.6 °F 1026.3 in Calm     82 % 0.0 in 0.0 W/m2 CLR
06:40 0.6 °F -2.0 °F 1026.3 in WNW 7.4 mph 7.4 mph 83 % 0.0 in 0.0 W/m2 CLR
06:47 0.6 °F -2.2 °F 1026.3 in West 9.3 mph 9.3 mph 82 % 0.0 in 0.0 W/m2 CLR
06:55 0.0 °F -2.7 °F 1026.6 in WNW 9.7 mph 9.7 mph 82 % 0.0 in 0.0 W/m2 CLR
07:18 0.0 °F -2.7 °F 1027.0 in West 7.4 mph 7.4 mph 82 % 0.0 in 0.0 W/m2 CLR
07:39 0.6 °F -2.0 °F 1027.3 in West 8.0 mph 8.0 mph 83 % 0.0 in 0.0 W/m2 CLR
07:48 0.6 °F -2.0 °F 1027.3 in West 9.7 mph 9.7 mph 83 % 0.0 in 0.0 W/m2 CLR
08:08 1.1 °F -1.4 °F 1027.7 in West 14.8 mph 14.8 mph 83 % 0.0 in 0.0 W/m2 CLR
08:21 2.2 °F -0.6 °F 1027.7 in West 18.5 mph 18.5 mph 82 % 0.0 in 0.0 W/m2 OVC
08:34 2.2 °F -0.7 °F 1028.0 in WNW 14.8 mph 14.8 mph 81 % 0.0 in 7.0 W/m2 BKN
08:41 2.2 °F -0.7 °F 1028.0 in West 16.7 mph 16.7 mph 81 % 0.0 in 11.0 W/m2 BKN
08:54 2.2 °F -0.7 °F 1028.0 in West 11.1 mph 11.1 mph 81 % 0.0 in 16.0 W/m2 BKN
09:00 2.2 °F -0.7 °F 1028.0 in West 6.4 mph 6.4 mph 81 % 0.0 in 19.0 W/m2 BKN
09:27 1.7 °F -1.1 °F 1028.3 in Calm   0.8 mph 82 % 0.0 in 47.0 W/m2 SCT
09:34 2.8 °F 0.0 °F 1028.7 in West 5.6 mph 5.6 mph 82 % 0.0 in 47.0 W/m2 SCT
09:43 3.3 °F 0.4 °F 1028.7 in West 3.7 mph 3.7 mph 81 % 0.0 in 53.0 W/m2 SCT
09:48 3.3 °F 0.4 °F 1028.7 in Calm     81 % 0.0 in 58.0 W/m2 SCT
09:54 3.9 °F 0.9 °F 1028.7 in Calm     81 % 0.0 in 67.0 W/m2 SCT
10:01 4.4 °F 1.4 °F 1029.0 in Calm     81 % 0.0 in 77.0 W/m2 FEW
10:13 5.6 °F 2.0 °F 1029.0 in NW 16.7 mph 16.7 mph 78 % 0.0 in 113.0 W/m2 CLR
10:20 6.1 °F 2.2 °F 1029.0 in NW 16.7 mph 16.7 mph 76 % 0.0 in 137.0 W/m2 CLR
10:26 6.7 °F 2.3 °F 1029.3 in WNW 14.8 mph 14.8 mph 74 % 0.0 in 167.0 W/m2 CLR
10:34 7.2 °F 2.7 °F 1029.3 in WNW 1.9 mph 1.9 mph 73 % 0.0 in 125.0 W/m2 CLR
10:53 7.8 °F 3.1 °F 1029.7 in WNW 13.0 mph 13.0 mph 72 % 0.0 in 114.0 W/m2 CLR
11:31 8.3 °F 3.6 °F 1030.0 in NW 18.5 mph 18.5 mph 72 % 0.0 in 185.0 W/m2 CLR
11:51 8.9 °F 4.1 °F 1029.7 in NNW 22.2 mph 22.2 mph 72 % 0.0 in 225.0 W/m2 CLR
12:00 8.9 °F 4.1 °F 1029.7 in NW 18.5 mph 18.5 mph 72 % 0.0 in 306.0 W/m2 CLR
12:17 8.9 °F 3.7 °F 1029.7 in NW 18.5 mph 18.5 mph 70 % 0.0 in 186.0 W/m2 CLR
12:52 9.4 °F 3.8 °F 1029.3 in NW 20.9 mph 20.9 mph 68 % 0.0 in 304.0 W/m2 CLR
13:21 10.0 °F 4.2 °F 1028.7 in North 29.6 mph 29.6 mph 67 % 0.0 in 260.0 W/m2 CLR
13:30 10.6 °F 4.7 °F 1028.3 in NNW 22.2 mph 22.2 mph 67 % 0.0 in 230.0 W/m2 CLR
14:01 11.1 °F 4.6 °F 1028.0 in WNW 16.7 mph 16.7 mph 64 % 0.0 in 619.0 W/m2 CLR
14:09 11.1 °F 4.1 °F 1028.0 in NW 14.8 mph 14.8 mph 62 % 0.0 in 524.0 W/m2 CLR
14:14 11.1 °F 4.3 °F 1028.0 in NNW 18.5 mph 18.5 mph 63 % 0.0 in 547.0 W/m2 CLR
14:32 11.1 °F 4.6 °F 1027.7 in North 14.8 mph 14.8 mph 64 % 0.0 in 165.0 W/m2 CLR
14:50 10.6 °F 3.8 °F 1027.7 in NNW 14.8 mph 14.8 mph 63 % 0.0 in 209.0 W/m2 CLR
14:59 11.1 °F 3.9 °F 1027.7 in NNW 14.8 mph 14.8 mph 61 % 0.0 in 346.0 W/m2 CLR
15:06 11.7 °F 4.4 °F 1027.3 in NW 14.8 mph 14.8 mph 61 % 0.0 in 396.0 W/m2 CLR
15:16 11.7 °F 4.4 °F 1027.3 in NNW 16.1 mph 16.1 mph 61 % 0.0 in 374.0 W/m2 CLR
15:21 11.7 °F 4.6 °F 1027.3 in NNW 18.5 mph 18.5 mph 62 % 0.0 in 325.0 W/m2 CLR
15:37 11.7 °F 4.8 °F 1027.3 in NNE 18.5 mph 18.5 mph 63 % 0.0 in 248.0 W/m2 CLR
15:44 11.1 °F 4.3 °F 1027.3 in NNE 18.5 mph 18.5 mph 63 % 0.0 in 174.0 W/m2 CLR
15:59 10.6 °F 3.8 °F 1027.3 in NNW 13.0 mph 13.0 mph 63 % 0.0 in 149.0 W/m2 CLR
16:11 10.6 °F 4.0 °F 1027.3 in NW 14.8 mph 14.8 mph 64 % 0.0 in 134.0 W/m2 CLR
16:28 10.6 °F 4.0 °F 1027.3 in North 13.0 mph 13.0 mph 64 % 0.0 in 139.0 W/m2 CLR
16:33 10.6 °F 4.0 °F 1027.7 in NNE 14.8 mph 14.8 mph 64 % 0.0 in 102.0 W/m2 CLR
16:47 10.0 °F 3.9 °F 1027.7 in Calm     66 % 0.0 in 88.0 W/m2 CLR
17:02 9.4 °F 3.4 °F 1027.7 in Calm     66 % 0.0 in 69.0 W/m2 FEW
17:16 9.4 °F 3.6 °F 1027.3 in Calm     67 % 0.0 in 39.0 W/m2 BKN
17:25 9.4 °F 3.6 °F 1027.3 in Calm     67 % 0.0 in 25.0 W/m2 BKN
17:47 7.8 °F 2.1 °F 1027.7 in Calm     67 % 0.0 in 5.0 W/m2 BKN
17:55 7.8 °F 2.2 °F 1028.0 in Calm     68 % 0.0 in 0.0 W/m2 OVC
18:21 6.7 °F 1.8 °F 1028.0 in Calm     71 % 0.0 in 0.0 W/m2 CLR
18:44 6.1 °F 1.4 °F 1028.0 in Calm     72 % 0.0 in 0.0 W/m2 CLR
18:51 6.1 °F 1.6 °F 1028.0 in Calm     73 % 0.0 in 0.0 W/m2 CLR
19:09 6.1 °F 1.8 °F 1027.7 in WNW 3.7 mph 3.7 mph 74 % 0.0 in 0.0 W/m2 CLR
19:15 5.6 °F 1.3 °F 1027.7 in WNW 5.6 mph 5.6 mph 74 % 0.0 in 0.0 W/m2 CLR
19:23 5.6 °F 1.3 °F 1027.7 in West 5.6 mph 5.6 mph 74 % 0.0 in 0.0 W/m2 CLR
19:35 6.1 °F 2.4 °F 1027.3 in WNW 5.6 mph 5.6 mph 77 % 0.0 in 0.0 W/m2 CLR
19:46 5.6 °F 1.7 °F 1027.7 in Calm     76 % 0.0 in 0.0 W/m2 CLR
19:53 5.0 °F 1.3 °F 1027.7 in Calm     77 % 0.0 in 0.0 W/m2 CLR
20:04 4.4 °F 1.1 °F 1028.3 in Calm     79 % 0.0 in 0.0 W/m2 CLR
20:10 3.9 °F 0.6 °F 1028.3 in Calm     79 % 0.0 in 0.0 W/m2 CLR
20:19 3.9 °F 0.8 °F 1028.0 in West 5.6 mph 5.6 mph 80 % 0.0 in 0.0 W/m2 CLR
20:38 3.9 °F 0.9 °F 1028.0 in West 1.9 mph 1.9 mph 81 % 0.0 in 0.0 W/m2 CLR
21:01 2.8 °F 0.2 °F 1028.3 in Calm     83 % 0.0 in 0.0 W/m2 CLR
21:07 2.8 °F 0.2 °F 1028.3 in Calm     83 % 0.0 in 0.0 W/m2 CLR
21:19 2.8 °F 0.3 °F 1028.0 in Calm     84 % 0.0 in 0.0 W/m2 CLR
21:32 2.2 °F 0.1 °F 1028.3 in Calm     86 % 0.0 in 0.0 W/m2 CLR
21:38 2.2 °F 0.1 °F 1028.3 in Calm     86 % 0.0 in 0.0 W/m2 CLR
21:46 2.2 °F 0.1 °F 1028.3 in Calm     86 % 0.0 in 0.0 W/m2 CLR
21:47 2.2 °F 0.1 °F 1028.7 in Calm     86 % 0.0 in 0.0 W/m2 CLR
21:48 2.2 °F 0.1 °F 1028.7 in Calm     86 % 0.0 in 0.0 W/m2 CLR
21:49 2.2 °F 0.1 °F 1028.7 in Calm     86 % 0.0 in 0.0 W/m2 CLR
21:50 2.2 °F 0.1 °F 1028.7 in Calm     86 % 0.0 in 0.0 W/m2 CLR
22:03 2.2 °F 0.1 °F 1028.3 in Calm     86 % 0.0 in 0.0 W/m2 CLR
22:07 2.2 °F 0.3 °F 1028.3 in Calm     87 % 0.0 in 0.0 W/m2 CLR
22:09 2.2 °F 0.3 °F 1028.3 in Calm     87 % 0.0 in 0.0 W/m2 CLR
22:16 1.7 °F -0.3 °F 1028.7 in Calm     87 % 0.0 in 0.0 W/m2 CLR
22:21 1.1 °F -0.8 °F 1028.3 in Calm     87 % 0.0 in 0.0 W/m2 CLR
22:33 1.1 °F -0.8 °F 1028.3 in Calm     87 % 0.0 in 0.0 W/m2 CLR
23:09 0.6 °F -1.2 °F 1028.3 in Calm     88 % 0.0 in 0.0 W/m2 CLR
Lo Temps de Massalio
Compliments of Weather Underground - 768 kb